Time;durP1;ratioP1;P1;durP2;ratioP2;P2;SDS_P1;SDS_P2;PMS_P1;PMS_P2;Temp;Humidity;BMP_temperature;BMP_pressure;BME280_temperature;BME280_humidity;BME280_pressure;Samples;Min_cycle;Max_cycle;Signal;HPM_P1;HPM_P2
2023/05/09 00:01:45;;;;;;;16.83;8.35;;;15.40;99.90;;;;;;4021855;29;20699;-91
2023/05/09 00:03:46;;;;;;;13.98;8.38;;;15.30;99.90;;;;;;4006515;29;20202;-91
2023/05/09 00:05:47;;;;;;;13.98;8.13;;;15.40;99.90;;;;;;4021786;29;20194;-91
2023/05/09 00:07:48;;;;;;;13.40;7.95;;;15.40;99.90;;;;;;4006493;29;20545;-91
2023/05/09 00:09:49;;;;;;;14.85;7.75;;;15.30;99.90;;;;;;4021619;29;20315;-92
2023/05/09 00:11:50;;;;;;;13.98;7.93;;;15.40;99.90;;;;;;4006406;29;20215;-91
2023/05/09 00:13:52;;;;;;;13.07;7.72;;;15.40;99.90;;;;;;4006372;29;20686;-91
2023/05/09 00:15:52;;;;;;;15.25;8.65;;;15.40;99.90;;;;;;4006154;29;20210;-91
2023/05/09 00:17:53;;;;;;;15.10;7.82;;;15.60;99.90;;;;;;4021848;29;20182;-91
2023/05/09 00:19:54;;;;;;;16.42;8.63;;;15.50;99.90;;;;;;4006128;29;20653;-91
2023/05/09 00:21:55;;;;;;;13.13;8.15;;;15.70;99.90;;;;;;4021440;29;20178;-90
2023/05/09 00:23:56;;;;;;;16.27;9.00;;;15.50;99.90;;;;;;4006161;29;20246;-90
2023/05/09 00:25:58;;;;;;;13.57;8.32;;;15.60;99.90;;;;;;4006167;29;20259;-91
2023/05/09 00:27:59;;;;;;;14.70;8.15;;;15.60;99.90;;;;;;4021469;29;20239;-91
2023/05/09 00:30:00;;;;;;;14.18;9.20;;;15.60;99.90;;;;;;4006071;29;20636;-91
2023/05/09 00:32:01;;;;;;;14.45;8.40;;;15.40;99.90;;;;;;4021510;29;20183;-92
2023/05/09 00:34:02;;;;;;;10.90;7.70;;;15.40;99.90;;;;;;4021180;29;20309;-92
2023/05/09 00:36:02;;;;;;;15.88;8.15;;;15.50;99.90;;;;;;4020813;29;20250;-91
2023/05/09 00:38:03;;;;;;;14.63;8.23;;;15.50;99.90;;;;;;4021258;29;20759;-92
2023/05/09 00:40:06;;;;;;;12.25;8.30;;;15.40;99.90;;;;;;4006290;29;20232;-91
2023/05/09 00:42:07;;;;;;;15.77;8.18;;;15.40;99.90;;;;;;4021499;29;20179;-92
2023/05/09 00:44:07;;;;;;;11.32;8.48;;;15.40;99.90;;;;;;4021365;29;20273;-91
2023/05/09 00:46:08;;;;;;;11.95;7.82;;;15.40;99.90;;;;;;4006253;29;20704;-92
2023/05/09 00:48:09;;;;;;;15.25;8.30;;;15.50;99.90;;;;;;4021362;29;20190;-91
2023/05/09 00:50:10;;;;;;;13.85;8.05;;;15.50;99.90;;;;;;4006093;29;20528;-90
2023/05/09 00:52:11;;;;;;;17.75;8.18;;;15.50;99.90;;;;;;4021294;29;20428;-90
2023/05/09 00:54:12;;;;;;;13.98;8.38;;;15.50;99.90;;;;;;4006042;29;20326;-91
2023/05/09 00:56:14;;;;;;;15.10;7.85;;;15.40;99.90;;;;;;4006023;29;20659;-91
2023/05/09 00:58:15;;;;;;;13.05;7.80;;;15.40;99.90;;;;;;4005885;29;20183;-91
2023/05/09 01:00:16;;;;;;;12.43;7.93;;;15.40;99.90;;;;;;4005961;29;20203;-92
2023/05/09 01:02:18;;;;;;;11.98;8.18;;;15.50;99.90;;;;;;4005964;29;20672;-90
2023/05/09 01:04:18;;;;;;;14.40;8.50;;;15.60;99.90;;;;;;4005788;29;20728;-92
2023/05/09 01:06:30;;;;;;;16.77;8.63;;;15.50;99.90;;;;;;4005813;29;20270;-91
2023/05/09 01:08:54;;;;;;;11.45;8.05;;;15.50;99.90;;;;;;4021233;29;20342;-91
2023/05/09 01:11:02;;;;;;;12.20;8.25;;;15.60;99.90;;;;;;4021158;29;20188;-92
2023/05/09 01:13:21;;;;;;;13.15;8.93;;;15.70;99.90;;;;;;4021130;29;20316;-91
2023/05/09 01:15:47;;;;;;;14.00;8.93;;;15.50;99.90;;;;;;4021103;29;20222;-91
2023/05/09 01:17:48;;;;;;;13.40;9.20;;;15.60;99.90;;;;;;4021316;29;20210;-91
2023/05/09 01:20:21;;;;;;;16.05;9.02;;;15.50;99.90;;;;;;4020974;29;20193;-92
2023/05/09 01:22:31;;;;;;;12.55;8.18;;;15.50;99.90;;;;;;4005878;29;20708;-90
2023/05/09 01:24:53;;;;;;;14.85;8.68;;;15.50;99.90;;;;;;4005555;29;20194;-91
2023/05/09 01:27:22;;;;;;;12.05;8.27;;;15.40;99.90;;;;;;4020843;29;20603;-92
2023/05/09 01:29:40;;;;;;;12.82;7.70;;;15.40;99.90;;;;;;4005950;29;20183;-92
2023/05/09 01:31:45;;;;;;;12.68;8.40;;;15.40;99.90;;;;;;4005620;29;20247;-91
2023/05/09 01:33:53;;;;;;;12.55;7.85;;;15.50;99.90;;;;;;4020933;29;20202;-92
2023/05/09 01:36:00;;;;;;;14.57;8.48;;;15.40;99.90;;;;;;4005710;29;20571;-92
2023/05/09 01:38:10;;;;;;;13.27;8.88;;;15.40;99.90;;;;;;4005794;29;20178;-92
2023/05/09 01:40:15;;;;;;;11.43;8.23;;;15.40;99.90;;;;;;4005596;29;20247;-90
2023/05/09 01:42:19;;;;;;;15.35;8.38;;;15.40;99.90;;;;;;4006160;29;20182;-91
2023/05/09 01:44:21;;;;;;;11.82;7.75;;;15.40;99.90;;;;;;4005909;29;20199;-92
2023/05/09 01:46:24;;;;;;;16.23;8.23;;;15.30;99.90;;;;;;4005986;29;20167;-91
2023/05/09 01:48:29;;;;;;;14.35;8.18;;;15.20;99.90;;;;;;4009287;29;20187;-91
2023/05/09 01:50:30;;;;;;;14.02;8.13;;;15.30;99.90;;;;;;4008536;29;20571;-91
2023/05/09 01:52:33;;;;;;;18.60;8.98;;;15.40;99.90;;;;;;4008325;29;20187;-92
2023/05/09 01:54:36;;;;;;;14.65;8.20;;;15.50;99.90;;;;;;4023486;29;20224;-91
2023/05/09 01:56:37;;;;;;;11.93;7.80;;;15.40;99.90;;;;;;4008400;29;20210;-92
2023/05/09 01:58:40;;;;;;;12.85;8.05;;;15.40;99.90;;;;;;4023637;29;20582;-91
2023/05/09 02:00:42;;;;;;;14.13;9.10;;;15.50;99.90;;;;;;4023413;29;20563;-92
2023/05/09 02:02:43;;;;;;;15.35;8.77;;;15.40;99.90;;;;;;4023563;29;20257;-90
2023/05/09 02:04:46;;;;;;;10.20;8.00;;;15.20;99.90;;;;;;4008046;29;20199;-92
2023/05/09 02:06:51;;;;;;;11.82;7.80;;;15.20;99.90;;;;;;4023159;29;20178;-91
2023/05/09 02:08:52;;;;;;;15.85;8.57;;;15.10;99.90;;;;;;4023509;29;20614;-92
2023/05/09 02:10:53;;;;;;;13.60;8.20;;;15.20;99.90;;;;;;4023333;29;20244;-91
2023/05/09 02:12:55;;;;;;;12.05;8.60;;;15.20;99.90;;;;;;4008058;29;20201;-91
2023/05/09 02:14:56;;;;;;;12.05;7.63;;;15.10;99.90;;;;;;4007572;29;20219;-92
2023/05/09 02:16:59;;;;;;;11.88;7.57;;;15.10;99.90;;;;;;4007827;29;20233;-91
2023/05/09 02:19:00;;;;;;;15.20;8.20;;;15.00;99.90;;;;;;4007949;29;20247;-92
2023/05/09 02:21:02;;;;;;;15.05;8.07;;;15.10;99.90;;;;;;4023023;29;20179;-91
2023/05/09 02:23:03;;;;;;;15.02;7.55;;;15.20;99.90;;;;;;4022792;29;20197;-91
2023/05/09 02:25:06;;;;;;;13.43;7.63;;;15.20;99.90;;;;;;4007605;29;20702;-92
2023/05/09 02:27:08;;;;;;;12.20;7.45;;;15.10;99.90;;;;;;4007852;29;20183;-91
2023/05/09 02:29:10;;;;;;;10.32;7.45;;;15.20;99.90;;;;;;4007820;29;20175;-92
2023/05/09 02:31:13;;;;;;;13.88;7.72;;;15.30;99.90;;;;;;4023392;29;20186;-91
2023/05/09 02:33:14;;;;;;;11.50;8.05;;;15.40;99.90;;;;;;4023230;29;20178;-91
2023/05/09 02:35:17;;;;;;;15.52;7.68;;;15.30;99.90;;;;;;4007880;29;20227;-91
2023/05/09 02:37:18;;;;;;;14.15;7.65;;;15.40;99.90;;;;;;4007832;29;20203;-91
2023/05/09 02:39:19;;;;;;;12.10;7.60;;;15.30;99.90;;;;;;4022617;29;20186;-91
2023/05/09 02:41:20;;;;;;;13.95;7.63;;;15.20;99.90;;;;;;4022983;29;20174;-93
2023/05/09 02:43:21;;;;;;;10.52;7.45;;;15.30;99.90;;;;;;4007809;29;20189;-91
2023/05/09 02:45:22;;;;;;;11.73;7.95;;;15.20;99.90;;;;;;4022614;29;20205;-91
2023/05/09 02:47:24;;;;;;;13.25;7.50;;;15.30;99.90;;;;;;4007645;29;20584;-93
2023/05/09 02:49:25;;;;;;;13.88;8.07;;;15.40;99.90;;;;;;4007874;29;20182;-92
2023/05/09 02:51:26;;;;;;;13.30;7.63;;;15.40;99.90;;;;;;4022716;29;20171;-91
2023/05/09 02:53:27;;;;;;;11.35;7.85;;;15.30;99.90;;;;;;4038093;29;20212;-91
2023/05/09 02:55:28;;;;;;;13.60;8.15;;;15.40;99.90;;;;;;4007444;29;20309;-91
2023/05/09 02:57:29;;;;;;;15.55;8.23;;;15.50;99.90;;;;;;4007316;29;20673;-91
2023/05/09 02:59:29;;;;;;;13.90;7.63;;;15.40;99.90;;;;;;4021846;29;20536;-91
2023/05/09 03:01:34;;;;;;;14.77;7.90;;;15.40;99.90;;;;;;4007569;29;20171;-91
2023/05/09 03:03:37;;;;;;;15.95;7.97;;;15.50;99.90;;;;;;4007104;29;20183;-92
2023/05/09 03:05:38;;;;;;;11.48;7.90;;;15.50;99.90;;;;;;4022438;29;20293;-92
2023/05/09 03:07:39;;;;;;;14.57;8.18;;;15.60;99.90;;;;;;4022511;29;20174;-91
2023/05/09 03:09:40;;;;;;;12.85;8.75;;;15.60;99.90;;;;;;4006866;29;20175;-91
2023/05/09 03:11:41;;;;;;;12.57;7.95;;;15.50;99.90;;;;;;4022339;29;20182;-92
2023/05/09 03:13:42;;;;;;;13.02;8.25;;;15.30;99.90;;;;;;4006945;29;20207;-92
2023/05/09 03:15:42;;;;;;;16.77;8.43;;;15.10;99.90;;;;;;4007137;29;20677;-91
2023/05/09 03:17:45;;;;;;;14.98;8.55;;;15.20;99.90;;;;;;4007377;29;20228;-91
2023/05/09 03:19:47;;;;;;;10.73;8.07;;;15.20;99.90;;;;;;4022358;29;20297;-90
2023/05/09 03:21:48;;;;;;;12.40;8.90;;;15.20;99.90;;;;;;4007096;29;20179;-91
2023/05/09 03:23:49;;;;;;;15.48;8.38;;;15.10;99.90;;;;;;4007146;29;20203;-91
2023/05/09 03:25:50;;;;;;;13.98;8.95;;;15.20;99.90;;;;;;4007226;29;20235;-92
2023/05/09 03:27:51;;;;;;;13.55;8.60;;;15.10;99.90;;;;;;4022747;29;20196;-91
2023/05/09 03:29:52;;;;;;;12.43;9.02;;;15.20;99.90;;;;;;4006829;29;20206;-92
2023/05/09 03:31:54;;;;;;;14.98;8.20;;;15.20;99.90;;;;;;4022207;29;20601;-92
2023/05/09 03:33:55;;;;;;;14.32;7.72;;;15.10;99.90;;;;;;4006749;29;20204;-92
2023/05/09 03:35:56;;;;;;;16.42;8.77;;;15.00;99.90;;;;;;4006722;29;20214;-92
2023/05/09 03:37:56;;;;;;;15.90;9.13;;;14.90;99.90;;;;;;4006794;29;20175;-92
2023/05/09 03:39:57;;;;;;;16.63;9.00;;;15.00;99.90;;;;;;4006668;29;20708;-91
2023/05/09 03:41:59;;;;;;;15.82;8.85;;;15.00;99.90;;;;;;4006718;29;20182;-91
2023/05/09 03:44:00;;;;;;;15.48;9.10;;;15.20;99.90;;;;;;4006522;29;20213;-91
2023/05/09 03:46:01;;;;;;;16.08;9.23;;;15.10;99.90;;;;;;4022125;29;20182;-91
2023/05/09 03:48:04;;;;;;;13.55;8.25;;;15.10;99.90;;;;;;4006631;29;20557;-91
2023/05/09 03:50:06;;;;;;;14.15;8.75;;;15.00;99.90;;;;;;4021967;29;20178;-93
2023/05/09 03:52:08;;;;;;;11.65;8.05;;;14.90;99.90;;;;;;4006657;29;20594;-92
2023/05/09 03:54:09;;;;;;;12.75;9.02;;;15.00;99.90;;;;;;4021755;29;20286;-91
2023/05/09 03:56:10;;;;;;;13.25;8.77;;;15.00;99.90;;;;;;4006525;29;20190;-91
2023/05/09 03:58:19;;;;;;;12.70;8.80;;;15.00;99.90;;;;;;4021822;29;20178;-91
2023/05/09 04:00:21;;;;;;;14.77;8.52;;;14.90;99.90;;;;;;4021674;29;20221;-91
2023/05/09 04:02:33;;;;;;;14.18;8.73;;;15.00;99.90;;;;;;4021726;29;20609;-92
2023/05/09 04:04:33;;;;;;;14.25;9.25;;;15.10;99.90;;;;;;4006120;29;20234;-92
2023/05/09 04:06:36;;;;;;;14.40;9.20;;;15.10;99.90;;;;;;4021931;29;20189;-90
2023/05/09 04:08:39;;;;;;;17.65;9.55;;;15.10;99.90;;;;;;4006416;29;20178;-91
2023/05/09 04:10:39;;;;;;;11.98;8.63;;;15.00;99.90;;;;;;4020618;29;20171;-91
2023/05/09 04:12:40;;;;;;;16.23;9.35;;;15.00;99.90;;;;;;4006249;29;20270;-92
2023/05/09 04:14:42;;;;;;;14.50;8.70;;;15.00;99.90;;;;;;4006041;29;20321;-91
2023/05/09 04:16:43;;;;;;;14.40;8.90;;;15.10;99.90;;;;;;4006452;29;20183;-91
2023/05/09 04:18:43;;;;;;;16.23;9.52;;;15.00;99.90;;;;;;4006436;29;20174;-91
2023/05/09 04:20:45;;;;;;;16.40;9.70;;;15.10;99.90;;;;;;4021794;29;20182;-90
2023/05/09 04:22:46;;;;;;;14.45;8.60;;;15.00;99.90;;;;;;4021683;29;20176;-92
2023/05/09 04:24:47;;;;;;;16.42;9.27;;;15.10;99.90;;;;;;4006431;29;20199;-90
2023/05/09 04:26:50;;;;;;;14.77;9.32;;;15.10;99.90;;;;;;4021268;29;20174;-91
2023/05/09 04:28:56;;;;;;;14.95;10.07;;;15.10;99.90;;;;;;4007111;29;20672;-91
2023/05/09 04:30:57;;;;;;;17.60;9.30;;;15.00;99.90;;;;;;4021148;29;20235;-91
2023/05/09 04:32:58;;;;;;;15.60;9.00;;;15.10;99.90;;;;;;4006368;29;20213;-92
2023/05/09 04:35:00;;;;;;;13.32;10.00;;;15.10;99.90;;;;;;4006183;29;20218;-90
2023/05/09 04:37:05;;;;;;;15.85;9.98;;;15.10;99.90;;;;;;4006630;29;20812;-91
2023/05/09 04:39:07;;;;;;;16.55;9.20;;;15.20;99.90;;;;;;4021569;29;20170;-91
2023/05/09 04:41:09;;;;;;;15.93;10.07;;;15.20;99.90;;;;;;4006407;29;20184;-89
2023/05/09 04:43:10;;;;;;;12.95;9.65;;;15.20;99.90;;;;;;4006434;29;20179;-92
2023/05/09 04:45:11;;;;;;;17.83;9.98;;;15.30;99.90;;;;;;4005977;29;20695;-91
2023/05/09 04:47:12;;;;;;;14.90;10.00;;;15.50;99.90;;;;;;4021481;29;20170;-91
2023/05/09 04:49:13;;;;;;;16.10;9.73;;;15.40;99.90;;;;;;4006443;29;20175;-92
2023/05/09 04:51:15;;;;;;;13.88;9.93;;;15.30;99.90;;;;;;4021490;29;20188;-92
2023/05/09 04:53:16;;;;;;;13.63;9.27;;;15.30;99.90;;;;;;4021481;29;20189;-92
2023/05/09 04:55:18;;;;;;;18.42;9.77;;;15.20;99.90;;;;;;4021456;29;20221;-91
2023/05/09 04:57:22;;;;;;;13.30;8.98;;;15.30;99.90;;;;;;4006456;29;20190;-93
2023/05/09 04:59:28;;;;;;;13.07;9.57;;;15.20;99.90;;;;;;4006537;29;20661;-91
2023/05/09 05:01:29;;;;;;;13.90;9.15;;;15.20;99.90;;;;;;4021412;29;20589;-92
2023/05/09 05:03:31;;;;;;;17.40;9.35;;;15.20;99.90;;;;;;4021163;29;20585;-92
2023/05/09 05:05:32;;;;;;;13.50;8.88;;;15.30;99.90;;;;;;4006046;29;20282;-93
2023/05/09 05:07:33;;;;;;;13.63;8.85;;;15.40;99.90;;;;;;4006036;29;20717;-92
2023/05/09 05:09:34;;;;;;;13.40;8.73;;;15.50;99.90;;;;;;4021248;29;20182;-92
2023/05/09 05:11:35;;;;;;;15.52;8.73;;;15.30;99.90;;;;;;4005932;29;20174;-92
2023/05/09 05:13:38;;;;;;;12.55;8.77;;;15.40;99.90;;;;;;4021089;29;20182;-91
2023/05/09 05:15:40;;;;;;;10.70;8.25;;;15.50;99.90;;;;;;4006006;29;20221;-93
2023/05/09 05:17:42;;;;;;;13.10;8.88;;;15.40;99.90;;;;;;4006258;29;20182;-91
2023/05/09 05:19:43;;;;;;;13.80;8.35;;;15.40;99.90;;;;;;4005831;29;20712;-92
2023/05/09 05:21:44;;;;;;;15.50;8.13;;;15.50;99.90;;;;;;4021718;29;20186;-92
2023/05/09 05:23:45;;;;;;;12.52;7.72;;;15.50;99.90;;;;;;4024168;29;20273;-92
2023/05/09 05:25:47;;;;;;;15.73;7.75;;;15.50;99.90;;;;;;4024181;29;20182;-91
2023/05/09 05:27:48;;;;;;;14.63;7.90;;;15.50;99.90;;;;;;4009057;29;20183;-92
2023/05/09 05:29:50;;;;;;;10.65;7.45;;;15.60;99.90;;;;;;4008763;29;20195;-91
2023/05/09 05:31:50;;;;;;;11.57;7.82;;;15.60;99.90;;;;;;4008872;29;20690;-92
2023/05/09 05:33:51;;;;;;;15.80;8.25;;;15.60;99.90;;;;;;4008789;29;20206;-91
2023/05/09 05:35:53;;;;;;;13.95;8.70;;;15.70;99.90;;;;;;4023893;29;20220;-91
2023/05/09 05:37:55;;;;;;;15.23;8.20;;;15.80;99.90;;;;;;4008601;29;20310;-92
2023/05/09 05:39:56;;;;;;;17.40;8.50;;;15.60;99.90;;;;;;4008628;29;20239;-92
2023/05/09 05:41:58;;;;;;;17.63;8.73;;;15.70;99.90;;;;;;4008927;29;20183;-92
2023/05/09 05:43:59;;;;;;;16.50;9.45;;;15.70;99.90;;;;;;4023825;29;20198;-92
2023/05/09 05:46:00;;;;;;;12.73;8.35;;;15.80;99.90;;;;;;4008862;29;20274;-90
2023/05/09 05:48:03;;;;;;;20.50;8.35;;;15.80;99.90;;;;;;4024015;29;20269;-92
2023/05/09 05:50:07;;;;;;;14.57;8.88;;;15.70;99.90;;;;;;4008747;29;20186;-92
2023/05/09 05:52:10;;;;;;;13.68;8.75;;;15.90;99.90;;;;;;4008453;29;20202;-90
2023/05/09 05:54:11;;;;;;;15.23;9.00;;;15.80;99.90;;;;;;4008421;29;20222;-92
2023/05/09 05:56:12;;;;;;;11.98;8.73;;;15.70;99.90;;;;;;4008484;29;20217;-91
2023/05/09 05:58:13;;;;;;;14.52;8.65;;;15.70;99.90;;;;;;4008764;29;20269;-91
2023/05/09 06:00:15;;;;;;;16.55;8.88;;;15.70;99.90;;;;;;4023884;29;20206;-90
2023/05/09 06:02:23;;;;;;;13.43;7.95;;;15.60;99.90;;;;;;4023765;29;20196;-91
2023/05/09 06:04:24;;;;;;;13.00;8.88;;;15.60;99.90;;;;;;4023373;29;20245;-91
2023/05/09 06:06:26;;;;;;;12.63;8.18;;;15.60;99.90;;;;;;4008546;29;20536;-91
2023/05/09 06:08:28;;;;;;;16.90;7.85;;;15.70;99.90;;;;;;4008667;29;20175;-90
2023/05/09 06:10:29;;;;;;;13.27;8.73;;;15.60;99.90;;;;;;4023781;29;20181;-92
2023/05/09 06:12:30;;;;;;;14.57;8.50;;;15.70;99.90;;;;;;4009054;29;20178;-91
2023/05/09 06:14:30;;;;;;;15.82;8.48;;;15.50;99.90;;;;;;4023538;29;20209;-92
2023/05/09 06:16:31;;;;;;;12.90;8.40;;;15.50;99.90;;;;;;4008144;29;20194;-91
2023/05/09 06:18:34;;;;;;;17.05;8.73;;;15.40;99.90;;;;;;4023629;29;20186;-92
2023/05/09 06:20:35;;;;;;;18.35;8.57;;;15.40;99.90;;;;;;4008232;29;20235;-92
2023/05/09 06:22:36;;;;;;;15.13;8.98;;;15.60;99.90;;;;;;4023418;29;20242;-94
2023/05/09 06:24:36;;;;;;;11.93;7.80;;;15.60;99.90;;;;;;4007948;29;20203;-91
2023/05/09 06:26:37;;;;;;;13.52;8.52;;;15.60;99.90;;;;;;4007903;29;20693;-91
2023/05/09 06:28:38;;;;;;;14.80;8.43;;;15.70;99.90;;;;;;4008047;29;20175;-92
2023/05/09 06:30:39;;;;;;;13.25;8.48;;;15.60;99.90;;;;;;4007802;29;20179;-92
2023/05/09 06:32:40;;;;;;;14.15;7.95;;;15.60;99.90;;;;;;4023237;29;20178;-93
2023/05/09 06:34:41;;;;;;;11.73;7.20;;;15.60;99.90;;;;;;4006797;29;20302;-92
2023/05/09 06:36:41;;;;;;;12.45;8.00;;;15.60;99.90;;;;;;4007887;29;20179;-92
2023/05/09 06:38:42;;;;;;;14.48;7.65;;;15.80;99.90;;;;;;4007836;29;20241;-92
2023/05/09 06:40:43;;;;;;;10.85;7.47;;;15.90;99.90;;;;;;4007517;29;20187;-92
2023/05/09 06:42:44;;;;;;;10.40;7.35;;;16.10;99.90;;;;;;4007873;29;20178;-93
2023/05/09 06:44:45;;;;;;;9.00;7.30;;;16.00;99.90;;;;;;4007535;29;20230;-93
2023/05/09 06:46:46;;;;;;;12.02;7.18;;;16.00;99.90;;;;;;4023506;29;20202;-92
2023/05/09 06:48:46;;;;;;;12.02;7.43;;;16.10;99.90;;;;;;4007728;29;20214;-92
2023/05/09 06:50:48;;;;;;;12.55;7.72;;;16.10;99.90;;;;;;4007962;29;20573;-91
2023/05/09 06:52:49;;;;;;;11.77;7.25;;;16.20;99.90;;;;;;4007606;29;20174;-92
2023/05/09 06:54:50;;;;;;;11.52;6.93;;;16.20;99.90;;;;;;4007898;29;20226;-92
2023/05/09 06:56:50;;;;;;;12.55;6.57;;;16.20;99.90;;;;;;4022747;29;20174;-93
2023/05/09 06:58:51;;;;;;;12.15;6.32;;;16.20;99.90;;;;;;4022787;29;20174;-93
2023/05/09 07:00:52;;;;;;;10.25;6.93;;;16.10;99.90;;;;;;4022860;29;20213;-92
2023/05/09 07:02:53;;;;;;;10.25;6.75;;;16.10;99.90;;;;;;4007629;29;20171;-91
2023/05/09 07:04:54;;;;;;;14.18;7.18;;;16.10;99.90;;;;;;4023168;29;20635;-92
2023/05/09 07:06:55;;;;;;;12.88;6.65;;;16.00;99.90;;;;;;4007621;29;20541;-94
2023/05/09 07:08:56;;;;;;;11.27;7.07;;;16.00;99.90;;;;;;4007680;29;20190;-92
2023/05/09 07:10:57;;;;;;;12.63;7.10;;;16.00;99.90;;;;;;4007468;29;20527;-93
2023/05/09 07:12:58;;;;;;;11.70;6.95;;;16.00;99.90;;;;;;4022528;29;20608;-90
2023/05/09 07:14:59;;;;;;;10.30;6.68;;;16.10;99.90;;;;;;4007220;29;20221;-92
2023/05/09 07:17:00;;;;;;;11.25;6.90;;;16.20;99.90;;;;;;4007381;29;20179;-94
2023/05/09 07:19:00;;;;;;;10.10;6.57;;;16.00;99.90;;;;;;4007309;29;20233;-91
2023/05/09 07:21:01;;;;;;;11.13;7.05;;;16.20;99.90;;;;;;4007245;29;20182;-93
2023/05/09 07:23:03;;;;;;;10.48;6.68;;;16.30;99.90;;;;;;4022368;29;20190;-92
2023/05/09 07:25:06;;;;;;;10.45;6.43;;;16.20;99.90;;;;;;4007142;29;20354;-93
2023/05/09 07:27:07;;;;;;;9.07;6.32;;;16.10;99.90;;;;;;4007327;29;20190;-91
2023/05/09 07:29:08;;;;;;;11.70;6.72;;;16.20;99.90;;;;;;4025642;29;20273;-92
2023/05/09 07:31:09;;;;;;;9.43;6.55;;;16.10;99.90;;;;;;4018018;29;20209;-91
2023/05/09 07:33:09;;;;;;;12.32;7.28;;;16.20;99.90;;;;;;4020384;29;20235;-92
2023/05/09 07:35:10;;;;;;;9.48;6.43;;;16.20;99.90;;;;;;4026468;29;20803;-92
2023/05/09 07:37:11;;;;;;;13.00;6.50;;;16.20;99.90;;;;;;4007030;29;20171;-91
2023/05/09 07:39:12;;;;;;;9.23;6.20;;;16.20;99.90;;;;;;4022478;29;20178;-93
2023/05/09 07:41:13;;;;;;;11.90;6.53;;;16.50;99.90;;;;;;4006910;29;20187;-93
2023/05/09 07:43:14;;;;;;;12.05;6.57;;;16.50;99.90;;;;;;4022250;29;20178;-92
2023/05/09 07:45:15;;;;;;;11.05;6.70;;;16.70;99.90;;;;;;4006554;29;20198;-92
2023/05/09 07:47:16;;;;;;;11.65;6.32;;;16.60;99.90;;;;;;4006979;29;20178;-91
2023/05/09 07:49:17;;;;;;;11.93;6.78;;;16.70;99.90;;;;;;4021800;29;20738;-92
2023/05/09 07:51:17;;;;;;;8.43;6.55;;;16.80;99.90;;;;;;4006660;29;20179;-92
2023/05/09 07:53:18;;;;;;;13.30;6.85;;;16.70;99.90;;;;;;4021832;29;20179;-91
2023/05/09 07:55:19;;;;;;;9.95;6.18;;;16.60;99.90;;;;;;4006174;29;20217;-92
2023/05/09 07:57:20;;;;;;;10.82;6.63;;;16.70;99.90;;;;;;4006647;29;20186;-93
2023/05/09 07:59:20;;;;;;;9.73;6.30;;;16.70;99.90;;;;;;4021816;29;20683;-92
2023/05/09 08:01:21;;;;;;;12.32;6.70;;;16.50;99.90;;;;;;4007247;29;20290;-93
2023/05/09 08:03:22;;;;;;;8.18;6.05;;;16.50;99.90;;;;;;4006700;29;20226;-92
2023/05/09 08:05:23;;;;;;;9.23;6.03;;;16.80;99.90;;;;;;4006605;29;20308;-92
2023/05/09 08:07:24;;;;;;;9.52;6.38;;;16.90;99.90;;;;;;4021759;29;20573;-91
2023/05/09 08:09:25;;;;;;;12.38;6.32;;;16.90;99.90;;;;;;4022063;29;20189;-92
2023/05/09 08:11:26;;;;;;;9.77;6.75;;;16.80;99.90;;;;;;4006661;29;20167;-91
2023/05/09 08:13:27;;;;;;;12.93;6.60;;;16.70;99.90;;;;;;4006538;29;20183;-92
2023/05/09 08:15:28;;;;;;;11.65;6.60;;;16.80;99.90;;;;;;4006366;29;20561;-92
2023/05/09 08:17:29;;;;;;;10.52;6.68;;;17.00;99.90;;;;;;4006674;29;20178;-92
2023/05/09 08:19:29;;;;;;;12.48;7.07;;;16.80;99.90;;;;;;4006481;29;20546;-91
2023/05/09 08:21:30;;;;;;;10.90;6.93;;;16.90;99.90;;;;;;4006254;29;20182;-91
2023/05/09 08:23:31;;;;;;;10.25;6.40;;;17.00;99.90;;;;;;4006244;29;20634;-91
2023/05/09 08:25:32;;;;;;;8.95;6.82;;;16.80;99.90;;;;;;4021275;29;20203;-92
2023/05/09 08:27:33;;;;;;;9.20;6.40;;;16.80;99.90;;;;;;4021424;29;20198;-92
2023/05/09 08:29:34;;;;;;;13.30;6.65;;;16.70;99.90;;;;;;4006199;29;20266;-91
2023/05/09 08:31:35;;;;;;;14.70;6.22;;;16.60;99.90;;;;;;4006238;29;20599;-93
2023/05/09 08:33:36;;;;;;;14.55;6.55;;;16.70;99.90;;;;;;4006133;29;20559;-94
2023/05/09 08:35:36;;;;;;;13.98;6.30;;;16.50;99.90;;;;;;4021153;29;20300;-93
2023/05/09 08:37:37;;;;;;;8.70;5.43;;;16.60;99.90;;;;;;4006060;29;20171;-91
2023/05/09 08:39:38;;;;;;;10.43;5.10;;;16.70;99.90;;;;;;4021262;29;20178;-92
2023/05/09 08:41:39;;;;;;;11.35;5.38;;;16.60;99.90;;;;;;4021317;29;20174;-92
2023/05/09 08:43:40;;;;;;;7.95;5.15;;;16.50;99.90;;;;;;4006103;29;20213;-92
2023/05/09 08:46:00;;;;;;;8.30;5.25;;;16.40;99.90;;;;;;4021433;29;20588;-91
2023/05/09 08:48:05;;;;;;;7.20;5.22;;;16.40;99.90;;;;;;4005980;29;20179;-92
2023/05/09 08:50:13;;;;;;;10.50;4.63;;;16.50;99.90;;;;;;4006142;29;20636;-93
2023/05/09 08:52:14;;;;;;;7.15;4.40;;;16.50;99.90;;;;;;4006327;29;20272;-93
2023/05/09 08:54:16;;;;;;;8.45;4.95;;;16.50;99.90;;;;;;4021554;29;20213;-92
2023/05/09 08:56:26;;;;;;;7.88;4.60;;;16.60;99.90;;;;;;4011195;29;20214;-94
2023/05/09 08:58:33;;;;;;;5.97;4.45;;;16.60;99.90;;;;;;4027279;29;20200;-92
2023/05/09 09:00:37;;;;;;;8.32;4.75;;;16.80;99.90;;;;;;4022615;29;20183;-93
2023/05/09 09:02:42;;;;;;;9.00;4.80;;;16.90;99.90;;;;;;4025771;29;20194;-92
2023/05/09 09:04:43;;;;;;;7.72;5.25;;;16.80;99.90;;;;;;4035321;29;20209;-91
2023/05/09 09:06:45;;;;;;;10.55;5.40;;;16.90;99.90;;;;;;4009974;29;20171;-92
2023/05/09 09:08:57;;;;;;;9.00;5.22;;;17.10;99.90;;;;;;4019136;29;20166;-93
2023/05/09 09:10:58;;;;;;;10.63;5.38;;;17.10;99.90;;;;;;4009650;29;20652;-92
2023/05/09 09:13:03;;;;;;;7.20;5.18;;;17.20;99.90;;;;;;4009039;29;20188;-91
2023/05/09 09:15:05;;;;;;;10.13;5.88;;;17.30;99.90;;;;;;4008819;29;20386;-91
2023/05/09 09:17:08;;;;;;;9.80;5.45;;;17.00;99.90;;;;;;4009124;29;20616;-91
2023/05/09 09:19:14;;;;;;;7.47;5.53;;;17.20;99.90;;;;;;4009248;29;20182;-92
2023/05/09 09:21:17;;;;;;;16.77;6.40;;;17.10;99.90;;;;;;4008642;29;20183;-91
2023/05/09 09:23:23;;;;;;;18.00;6.60;;;17.20;99.90;;;;;;4009481;29;20198;-93
2023/05/09 09:25:24;;;;;;;9.45;6.40;;;17.20;99.90;;;;;;4009122;29;20195;-92
2023/05/09 09:27:25;;;;;;;15.57;6.78;;;17.10;99.90;;;;;;4008822;29;20187;-93
2023/05/09 09:29:27;;;;;;;12.02;6.80;;;16.90;99.90;;;;;;4024196;29;20170;-92
2023/05/09 09:31:31;;;;;;;9.45;6.57;;;16.70;99.90;;;;;;4008877;29;20689;-92
2023/05/09 09:33:35;;;;;;;12.30;6.97;;;16.50;99.90;;;;;;4009210;29;20640;-92
2023/05/09 09:35:39;;;;;;;12.07;7.50;;;16.50;99.90;;;;;;4008656;29;20223;-93
2023/05/09 09:37:42;;;;;;;12.48;7.68;;;16.50;99.90;;;;;;4008857;29;20231;-93
2023/05/09 09:39:54;;;;;;;12.07;7.18;;;16.40;99.90;;;;;;4008935;29;20175;-92
2023/05/09 09:41:55;;;;;;;9.57;5.78;;;16.50;99.90;;;;;;4008852;29;20263;-92
2023/05/09 09:43:55;;;;;;;10.05;5.40;;;16.60;99.90;;;;;;4023694;29;20198;-91
2023/05/09 09:46:00;;;;;;;9.90;4.53;;;16.80;99.90;;;;;;4023734;29;20249;-91
2023/05/09 09:48:05;;;;;;;6.75;4.32;;;16.60;99.90;;;;;;4008723;29;20225;-92
2023/05/09 09:50:11;;;;;;;6.45;4.13;;;16.50;99.90;;;;;;4008330;29;20179;-94
2023/05/09 09:52:23;;;;;;;9.32;3.95;;;16.30;99.90;;;;;;4024105;29;20190;-92
2023/05/09 09:54:27;;;;;;;7.20;3.70;;;16.30;99.90;;;;;;4008881;29;20243;-92
2023/05/09 09:56:46;;;;;;;14.50;3.70;;;16.20;99.90;;;;;;4014351;29;20224;-94
2023/05/09 09:58:47;;;;;;;8.70;4.13;;;16.20;99.90;;;;;;4021298;29;20194;-91
2023/05/09 10:01:12;;;;;;;7.82;4.15;;;16.20;99.90;;;;;;4021205;29;20250;-94
2023/05/09 10:03:15;;;;;;;14.13;4.97;;;16.20;99.90;;;;;;4011583;29;20575;-95
2023/05/09 10:05:21;;;;;;;8.23;5.10;;;16.20;99.90;;;;;;4010485;29;20202;-94
2023/05/09 10:07:23;;;;;;;8.95;5.07;;;16.30;99.90;;;;;;4009130;29;20186;-92
2023/05/09 10:09:25;;;;;;;12.73;5.03;;;16.40;99.90;;;;;;4008640;29;20179;-93
2023/05/09 10:14:13;;;;;;;11.23;5.13;;;16.20;99.90;;;;;;4399151;23;20244;-94
2023/05/09 10:16:23;;;;;;;10.35;4.80;;;16.10;99.90;;;;;;4008912;29;20215;-94
2023/05/09 10:18:30;;;;;;;9.80;5.20;;;16.30;99.90;;;;;;4009037;29;20183;-96
2023/05/09 10:20:43;;;;;;;10.45;5.40;;;16.20;99.90;;;;;;4001389;29;20183;-94
2023/05/09 10:22:45;;;;;;;10.13;4.90;;;16.10;99.90;;;;;;4023962;29;20174;-93
2023/05/09 10:24:55;;;;;;;8.35;4.47;;;16.10;99.90;;;;;;4024663;29;20285;-92
2023/05/09 10:27:03;;;;;;;12.02;5.20;;;16.20;99.90;;;;;;4010879;29;20296;-92
2023/05/09 10:29:12;;;;;;;10.60;5.28;;;16.30;99.90;;;;;;4009114;29;20170;-94
2023/05/09 10:31:21;;;;;;;10.43;4.38;;;16.40;99.90;;;;;;4009062;29;20258;-95
2023/05/09 10:33:29;;;;;;;8.68;4.10;;;16.60;99.90;;;;;;4024115;29;20727;-96
2023/05/09 10:35:35;;;;;;;10.80;4.10;;;16.60;99.90;;;;;;4023465;29;20316;-94